sensor_id;sensor_type;location;lat;lon;timestamp;pressure;altitude;pressure_sealevel;temperature
17716;BMP280;50159;49.426;11.182;2023-02-26T00:01:31;97062.69;;;0.59
17716;BMP280;50159;49.426;11.182;2023-02-26T00:04:01;97060.03;;;0.60
17716;BMP280;50159;49.426;11.182;2023-02-26T00:06:31;97066.16;;;0.58
17716;BMP280;50159;49.426;11.182;2023-02-26T00:08:58;97066.97;;;0.58
17716;BMP280;50159;49.426;11.182;2023-02-26T00:11:26;97062.69;;;0.59
17716;BMP280;50159;49.426;11.182;2023-02-26T00:13:53;97072.09;;;0.58
17716;BMP280;50159;49.426;11.182;2023-02-26T00:16:34;97076.38;;;0.58
17716;BMP280;50159;49.426;11.182;2023-02-26T00:19:06;97079.09;;;0.55
17716;BMP280;50159;49.426;11.182;2023-02-26T00:21:34;97074.13;;;0.52
17716;BMP280;50159;49.426;11.182;2023-02-26T00:24:02;97075.91;;;0.50
17716;BMP280;50159;49.426;11.182;2023-02-26T00:26:30;97070.97;;;0.47
17716;BMP280;50159;49.426;11.182;2023-02-26T00:28:58;97085.56;;;0.45
17716;BMP280;50159;49.426;11.182;2023-02-26T00:31:25;97089.09;;;0.43
17716;BMP280;50159;49.426;11.182;2023-02-26T00:33:55;97087.63;;;0.37
17716;BMP280;50159;49.426;11.182;2023-02-26T00:36:23;97084.34;;;0.35
17716;BMP280;50159;49.426;11.182;2023-02-26T00:39:12;97082.84;;;0.31
17716;BMP280;50159;49.426;11.182;2023-02-26T00:41:40;97087.13;;;0.31
17716;BMP280;50159;49.426;11.182;2023-02-26T00:44:08;97092.97;;;0.33
17716;BMP280;50159;49.426;11.182;2023-02-26T00:46:43;97094.72;;;0.32
17716;BMP280;50159;49.426;11.182;2023-02-26T00:49:43;97099.06;;;0.30
17716;BMP280;50159;49.426;11.182;2023-02-26T00:52:28;97092.31;;;0.29
17716;BMP280;50159;49.426;11.182;2023-02-26T00:54:58;97084.00;;;0.24
17716;BMP280;50159;49.426;11.182;2023-02-26T00:57:25;97086.88;;;0.19
17716;BMP280;50159;49.426;11.182;2023-02-26T00:59:51;97093.13;;;0.13
17716;BMP280;50159;49.426;11.182;2023-02-26T01:02:18;97096.69;;;0.09
17716;BMP280;50159;49.426;11.182;2023-02-26T01:04:45;97094.38;;;0.05
17716;BMP280;50159;49.426;11.182;2023-02-26T01:07:18;97093.94;;;-0.04
17716;BMP280;50159;49.426;11.182;2023-02-26T01:09:47;97095.84;;;-0.08
17716;BMP280;50159;49.426;11.182;2023-02-26T01:12:14;97096.88;;;-0.12
17716;BMP280;50159;49.426;11.182;2023-02-26T01:14:43;97101.28;;;-0.15
17716;BMP280;50159;49.426;11.182;2023-02-26T01:17:35;97097.28;;;-0.21
17716;BMP280;50159;49.426;11.182;2023-02-26T01:20:19;97102.63;;;-0.25
17716;BMP280;50159;49.426;11.182;2023-02-26T01:23:13;97100.09;;;-0.26
17716;BMP280;50159;49.426;11.182;2023-02-26T01:25:52;97097.44;;;-0.23
17716;BMP280;50159;49.426;11.182;2023-02-26T01:28:25;97101.50;;;-0.20
17716;BMP280;50159;49.426;11.182;2023-02-26T01:30:58;97097.91;;;-0.16
17716;BMP280;50159;49.426;11.182;2023-02-26T01:36:23;97101.44;;;-0.18
17716;BMP280;50159;49.426;11.182;2023-02-26T01:41:51;97099.34;;;-0.28
17716;BMP280;50159;49.426;11.182;2023-02-26T01:44:39;97108.13;;;-0.34
17716;BMP280;50159;49.426;11.182;2023-02-26T01:47:32;97096.44;;;-0.39
17716;BMP280;50159;49.426;11.182;2023-02-26T01:50:22;97102.53;;;-0.42
17716;BMP280;50159;49.426;11.182;2023-02-26T01:53:16;97094.19;;;-0.45
17716;BMP280;50159;49.426;11.182;2023-02-26T01:55:47;97098.53;;;-0.47
17716;BMP280;50159;49.426;11.182;2023-02-26T01:58:16;97102.88;;;-0.49
17716;BMP280;50159;49.426;11.182;2023-02-26T02:00:43;97100.44;;;-0.52
17716;BMP280;50159;49.426;11.182;2023-02-26T02:03:10;97103.06;;;-0.53
17716;BMP280;50159;49.426;11.182;2023-02-26T02:05:54;97112.59;;;-0.57
17716;BMP280;50159;49.426;11.182;2023-02-26T02:08:22;97105.16;;;-0.61
17716;BMP280;50159;49.426;11.182;2023-02-26T02:10:50;97111.34;;;-0.67
17716;BMP280;50159;49.426;11.182;2023-02-26T02:13:40;97108.16;;;-0.71
17716;BMP280;50159;49.426;11.182;2023-02-26T02:25:49;97112.97;;;-0.84
17716;BMP280;50159;49.426;11.182;2023-02-26T02:31:51;97117.63;;;-0.93
17716;BMP280;50159;49.426;11.182;2023-02-26T02:34:47;97121.34;;;-1.00
17716;BMP280;50159;49.426;11.182;2023-02-26T02:37:28;97120.63;;;-1.03
17716;BMP280;50159;49.426;11.182;2023-02-26T02:40:31;97132.56;;;-1.04
17716;BMP280;50159;49.426;11.182;2023-02-26T02:43:13;97132.75;;;-1.08
17716;BMP280;50159;49.426;11.182;2023-02-26T02:48:31;97138.91;;;-1.12
17716;BMP280;50159;49.426;11.182;2023-02-26T02:51:03;97139.91;;;-1.16
17716;BMP280;50159;49.426;11.182;2023-02-26T02:53:40;97142.44;;;-1.16
17716;BMP280;50159;49.426;11.182;2023-02-26T02:56:23;97131.34;;;-1.15
17716;BMP280;50159;49.426;11.182;2023-02-26T02:59:04;97132.06;;;-1.12
17716;BMP280;50159;49.426;11.182;2023-02-26T03:01:34;97142.28;;;-1.12
17716;BMP280;50159;49.426;11.182;2023-02-26T03:04:08;97141.47;;;-1.13
17716;BMP280;50159;49.426;11.182;2023-02-26T03:06:37;97146.66;;;-1.15
17716;BMP280;50159;49.426;11.182;2023-02-26T03:09:07;97139.75;;;-1.13
17716;BMP280;50159;49.426;11.182;2023-02-26T03:11:35;97155.84;;;-1.11
17716;BMP280;50159;49.426;11.182;2023-02-26T03:14:04;97145.72;;;-1.12
17716;BMP280;50159;49.426;11.182;2023-02-26T03:16:47;97159.34;;;-1.13
17716;BMP280;50159;49.426;11.182;2023-02-26T03:19:48;97162.78;;;-1.14
17716;BMP280;50159;49.426;11.182;2023-02-26T03:23:15;97166.91;;;-1.11
17716;BMP280;50159;49.426;11.182;2023-02-26T03:25:44;97167.66;;;-1.09
17716;BMP280;50159;49.426;11.182;2023-02-26T03:28:51;97168.56;;;-1.10
17716;BMP280;50159;49.426;11.182;2023-02-26T03:34:12;97178.03;;;-1.13
17716;BMP280;50159;49.426;11.182;2023-02-26T03:36:50;97178.22;;;-1.17
17716;BMP280;50159;49.426;11.182;2023-02-26T03:39:30;97182.75;;;-1.24
17716;BMP280;50159;49.426;11.182;2023-02-26T03:45:00;97187.31;;;-1.32
17716;BMP280;50159;49.426;11.182;2023-02-26T03:47:29;97197.72;;;-1.36
17716;BMP280;50159;49.426;11.182;2023-02-26T03:52:34;97196.28;;;-1.43
17716;BMP280;50159;49.426;11.182;2023-02-26T03:55:27;97206.69;;;-1.47
17716;BMP280;50159;49.426;11.182;2023-02-26T03:57:54;97213.56;;;-1.49
17716;BMP280;50159;49.426;11.182;2023-02-26T04:00:22;97199.09;;;-1.49
17716;BMP280;50159;49.426;11.182;2023-02-26T04:03:14;97205.78;;;-1.46
17716;BMP280;50159;49.426;11.182;2023-02-26T04:05:48;97218.34;;;-1.42
17716;BMP280;50159;49.426;11.182;2023-02-26T04:08:16;97221.56;;;-1.37
17716;BMP280;50159;49.426;11.182;2023-02-26T04:11:03;97216.22;;;-1.31
17716;BMP280;50159;49.426;11.182;2023-02-26T04:13:32;97225.31;;;-1.26
17716;BMP280;50159;49.426;11.182;2023-02-26T04:15:59;97221.72;;;-1.20
17716;BMP280;50159;49.426;11.182;2023-02-26T04:18:26;97222.34;;;-1.15
17716;BMP280;50159;49.426;11.182;2023-02-26T04:20:52;97221.38;;;-1.12
17716;BMP280;50159;49.426;11.182;2023-02-26T04:23:19;97228.06;;;-1.09
17716;BMP280;50159;49.426;11.182;2023-02-26T04:25:46;97220.28;;;-1.06
17716;BMP280;50159;49.426;11.182;2023-02-26T04:28:13;97227.72;;;-1.02
17716;BMP280;50159;49.426;11.182;2023-02-26T04:30:40;97236.22;;;-1.01
17716;BMP280;50159;49.426;11.182;2023-02-26T04:33:07;97234.63;;;-1.04
17716;BMP280;50159;49.426;11.182;2023-02-26T04:35:34;97244.75;;;-1.02
17716;BMP280;50159;49.426;11.182;2023-02-26T04:38:01;97243.03;;;-1.02
17716;BMP280;50159;49.426;11.182;2023-02-26T04:40:27;97237.88;;;-1.00
17716;BMP280;50159;49.426;11.182;2023-02-26T04:42:54;97247.97;;;-0.97
17716;BMP280;50159;49.426;11.182;2023-02-26T04:45:21;97252.94;;;-0.94
17716;BMP280;50159;49.426;11.182;2023-02-26T04:47:48;97252.06;;;-0.93
17716;BMP280;50159;49.426;11.182;2023-02-26T04:50:15;97258.75;;;-0.91
17716;BMP280;50159;49.426;11.182;2023-02-26T04:52:42;97252.00;;;-0.92
17716;BMP280;50159;49.426;11.182;2023-02-26T04:55:09;97260.59;;;-0.94
17716;BMP280;50159;49.426;11.182;2023-02-26T04:57:35;97265.78;;;-0.96
17716;BMP280;50159;49.426;11.182;2023-02-26T05:00:03;97275.38;;;-1.02
17716;BMP280;50159;49.426;11.182;2023-02-26T05:02:33;97267.03;;;-1.06
17716;BMP280;50159;49.426;11.182;2023-02-26T05:05:00;97277.34;;;-1.09
17716;BMP280;50159;49.426;11.182;2023-02-26T05:07:27;97278.19;;;-1.08
17716;BMP280;50159;49.426;11.182;2023-02-26T05:09:53;97267.97;;;-1.08
17716;BMP280;50159;49.426;11.182;2023-02-26T05:12:20;97275.56;;;-1.07
17716;BMP280;50159;49.426;11.182;2023-02-26T05:14:47;97285.84;;;-1.08
17716;BMP280;50159;49.426;11.182;2023-02-26T05:17:14;97279.09;;;-1.09
17716;BMP280;50159;49.426;11.182;2023-02-26T05:19:40;97283.22;;;-1.07
17716;BMP280;50159;49.426;11.182;2023-02-26T05:22:07;97288.19;;;-1.04
17716;BMP280;50159;49.426;11.182;2023-02-26T05:24:34;97297.44;;;-1.01
17716;BMP280;50159;49.426;11.182;2023-02-26T05:27:01;97289.63;;;-0.97
17716;BMP280;50159;49.426;11.182;2023-02-26T05:29:27;97291.16;;;-0.93
17716;BMP280;50159;49.426;11.182;2023-02-26T05:31:54;97294.47;;;-0.91
17716;BMP280;50159;49.426;11.182;2023-02-26T05:34:21;97296.97;;;-0.90
17716;BMP280;50159;49.426;11.182;2023-02-26T05:36:48;97288.41;;;-0.89
17716;BMP280;50159;49.426;11.182;2023-02-26T05:39:15;97290.13;;;-0.89
17716;BMP280;50159;49.426;11.182;2023-02-26T05:41:41;97290.94;;;-0.87
17716;BMP280;50159;49.426;11.182;2023-02-26T05:44:08;97298.47;;;-0.84
17716;BMP280;50159;49.426;11.182;2023-02-26T05:46:35;97294.19;;;-0.84
17716;BMP280;50159;49.426;11.182;2023-02-26T05:49:02;97299.84;;;-0.77
17716;BMP280;50159;49.426;11.182;2023-02-26T05:51:29;97300.59;;;-0.74
17716;BMP280;50159;49.426;11.182;2023-02-26T05:53:55;97313.22;;;-0.71
17716;BMP280;50159;49.426;11.182;2023-02-26T05:56:22;97316.59;;;-0.70
17716;BMP280;50159;49.426;11.182;2023-02-26T05:58:49;97308.13;;;-0.71
17716;BMP280;50159;49.426;11.182;2023-02-26T06:01:16;97317.38;;;-0.68
17716;BMP280;50159;49.426;11.182;2023-02-26T06:03:43;97315.50;;;-0.65
17716;BMP280;50159;49.426;11.182;2023-02-26T06:06:13;97324.00;;;-0.65
17716;BMP280;50159;49.426;11.182;2023-02-26T06:08:46;97319.72;;;-0.64
17716;BMP280;50159;49.426;11.182;2023-02-26T06:11:13;97327.34;;;-0.63
17716;BMP280;50159;49.426;11.182;2023-02-26T06:13:40;97323.84;;;-0.60
17716;BMP280;50159;49.426;11.182;2023-02-26T06:16:07;97330.66;;;-0.61
17716;BMP280;50159;49.426;11.182;2023-02-26T06:18:34;97328.88;;;-0.59
17716;BMP280;50159;49.426;11.182;2023-02-26T06:21:02;97333.03;;;-0.56
17716;BMP280;50159;49.426;11.182;2023-02-26T06:23:28;97343.88;;;-0.51
17716;BMP280;50159;49.426;11.182;2023-02-26T06:25:55;97342.13;;;-0.49
17716;BMP280;50159;49.426;11.182;2023-02-26T06:28:22;97347.16;;;-0.48
17716;BMP280;50159;49.426;11.182;2023-02-26T06:30:52;97349.50;;;-0.44
17716;BMP280;50159;49.426;11.182;2023-02-26T06:33:19;97352.00;;;-0.42
17716;BMP280;50159;49.426;11.182;2023-02-26T06:35:46;97359.53;;;-0.39
17716;BMP280;50159;49.426;11.182;2023-02-26T06:38:13;97363.81;;;-0.40
17716;BMP280;50159;49.426;11.182;2023-02-26T06:40:40;97350.22;;;-0.40
17716;BMP280;50159;49.426;11.182;2023-02-26T06:43:07;97368.97;;;-0.41
17716;BMP280;50159;49.426;11.182;2023-02-26T06:45:34;97374.78;;;-0.38
17716;BMP280;50159;49.426;11.182;2023-02-26T06:48:02;97373.97;;;-0.38
17716;BMP280;50159;49.426;11.182;2023-02-26T06:50:28;97390.91;;;-0.36
17716;BMP280;50159;49.426;11.182;2023-02-26T06:52:56;97394.28;;;-0.35
17716;BMP280;50159;49.426;11.182;2023-02-26T06:55:23;97400.78;;;-0.28
17716;BMP280;50159;49.426;11.182;2023-02-26T06:57:56;97408.31;;;-0.24
17716;BMP280;50159;49.426;11.182;2023-02-26T07:00:24;97404.66;;;-0.19
17716;BMP280;50159;49.426;11.182;2023-02-26T07:02:52;97406.84;;;-0.10
17716;BMP280;50159;49.426;11.182;2023-02-26T07:05:18;97427.47;;;0.05
17716;BMP280;50159;49.426;11.182;2023-02-26T07:07:45;97423.72;;;0.14
17716;BMP280;50159;49.426;11.182;2023-02-26T07:10:12;97428.63;;;0.18
17716;BMP280;50159;49.426;11.182;2023-02-26T07:12:39;97426.63;;;0.24
17716;BMP280;50159;49.426;11.182;2023-02-26T07:15:07;97426.25;;;0.33
17716;BMP280;50159;49.426;11.182;2023-02-26T07:17:34;97434.69;;;0.35
17716;BMP280;50159;49.426;11.182;2023-02-26T07:20:01;97432.88;;;0.37
17716;BMP280;50159;49.426;11.182;2023-02-26T07:22:32;97435.44;;;0.37
17716;BMP280;50159;49.426;11.182;2023-02-26T07:24:59;97443.91;;;0.39
17716;BMP280;50159;49.426;11.182;2023-02-26T07:27:26;97443.78;;;0.42
17716;BMP280;50159;49.426;11.182;2023-02-26T07:29:55;97456.28;;;0.48
17716;BMP280;50159;49.426;11.182;2023-02-26T07:32:22;97450.09;;;0.53
17716;BMP280;50159;49.426;11.182;2023-02-26T07:34:49;97462.69;;;0.58
17716;BMP280;50159;49.426;11.182;2023-02-26T07:37:16;97458.06;;;0.66
17716;BMP280;50159;49.426;11.182;2023-02-26T07:39:43;97462.91;;;0.71
17716;BMP280;50159;49.426;11.182;2023-02-26T07:42:10;97465.22;;;0.77
17716;BMP280;50159;49.426;11.182;2023-02-26T07:44:36;97465.09;;;0.80
17716;BMP280;50159;49.426;11.182;2023-02-26T07:47:03;97466.81;;;0.80
17716;BMP280;50159;49.426;11.182;2023-02-26T07:49:30;97477.81;;;0.82
17716;BMP280;50159;49.426;11.182;2023-02-26T07:51:59;97474.97;;;0.88
17716;BMP280;50159;49.426;11.182;2023-02-26T07:54:27;97476.22;;;0.97
17716;BMP280;50159;49.426;11.182;2023-02-26T07:56:54;97481.94;;;1.04
17716;BMP280;50159;49.426;11.182;2023-02-26T07:59:20;97485.09;;;1.09
17716;BMP280;50159;49.426;11.182;2023-02-26T08:01:47;97484.13;;;1.11
17716;BMP280;50159;49.426;11.182;2023-02-26T08:04:14;97485.25;;;1.24
17716;BMP280;50159;49.426;11.182;2023-02-26T08:06:41;97485.41;;;1.39
17716;BMP280;50159;49.426;11.182;2023-02-26T08:09:08;97485.13;;;1.45
17716;BMP280;50159;49.426;11.182;2023-02-26T08:11:35;97497.44;;;1.37
17716;BMP280;50159;49.426;11.182;2023-02-26T08:14:06;97505.13;;;1.19
17716;BMP280;50159;49.426;11.182;2023-02-26T08:16:33;97499.72;;;1.07
17716;BMP280;50159;49.426;11.182;2023-02-26T08:19:00;97506.19;;;0.95
17716;BMP280;50159;49.426;11.182;2023-02-26T08:21:27;97499.72;;;0.87
17716;BMP280;50159;49.426;11.182;2023-02-26T08:23:54;97512.59;;;0.86
17716;BMP280;50159;49.426;11.182;2023-02-26T08:26:20;97506.25;;;0.94
17716;BMP280;50159;49.426;11.182;2023-02-26T08:28:47;97519.16;;;1.11
17716;BMP280;50159;49.426;11.182;2023-02-26T08:31:15;97515.59;;;1.51
17716;BMP280;50159;49.426;11.182;2023-02-26T08:33:42;97510.06;;;2.11
17716;BMP280;50159;49.426;11.182;2023-02-26T08:36:09;97509.97;;;2.64
17716;BMP280;50159;49.426;11.182;2023-02-26T08:38:36;97517.97;;;3.06
17716;BMP280;50159;49.426;11.182;2023-02-26T08:41:03;97516.91;;;3.42
17716;BMP280;50159;49.426;11.182;2023-02-26T08:43:30;97528.19;;;3.70
17716;BMP280;50159;49.426;11.182;2023-02-26T08:45:57;97523.97;;;3.69
17716;BMP280;50159;49.426;11.182;2023-02-26T08:48:24;97536.13;;;3.50
17716;BMP280;50159;49.426;11.182;2023-02-26T08:50:51;97539.59;;;3.34
17716;BMP280;50159;49.426;11.182;2023-02-26T08:53:18;97536.72;;;3.08
17716;BMP280;50159;49.426;11.182;2023-02-26T08:55:50;97551.09;;;2.95
17716;BMP280;50159;49.426;11.182;2023-02-26T08:58:18;97559.19;;;2.88
17716;BMP280;50159;49.426;11.182;2023-02-26T09:00:46;97563.47;;;2.88
17716;BMP280;50159;49.426;11.182;2023-02-26T09:03:12;97569.84;;;2.81
17716;BMP280;50159;49.426;11.182;2023-02-26T09:05:39;97580.94;;;2.81
17716;BMP280;50159;49.426;11.182;2023-02-26T09:08:07;97575.56;;;2.86
17716;BMP280;50159;49.426;11.182;2023-02-26T09:10:34;97576.63;;;2.82
17716;BMP280;50159;49.426;11.182;2023-02-26T09:13:01;97581.00;;;2.80
17716;BMP280;50159;49.426;11.182;2023-02-26T09:15:28;97587.19;;;2.92
17716;BMP280;50159;49.426;11.182;2023-02-26T09:17:54;97587.63;;;3.17
17716;BMP280;50159;49.426;11.182;2023-02-26T09:20:22;97577.59;;;3.44
17716;BMP280;50159;49.426;11.182;2023-02-26T09:22:49;97598.72;;;3.66
17716;BMP280;50159;49.426;11.182;2023-02-26T09:25:16;97590.66;;;3.72
17716;BMP280;50159;49.426;11.182;2023-02-26T09:27:43;97594.50;;;3.95
17716;BMP280;50159;49.426;11.182;2023-02-26T09:30:10;97589.59;;;4.36
17716;BMP280;50159;49.426;11.182;2023-02-26T09:32:37;97589.19;;;4.72
17716;BMP280;50159;49.426;11.182;2023-02-26T09:35:05;97586.84;;;4.83
17716;BMP280;50159;49.426;11.182;2023-02-26T09:37:32;97592.19;;;4.80
17716;BMP280;50159;49.426;11.182;2023-02-26T09:39:59;97591.91;;;4.56
17716;BMP280;50159;49.426;11.182;2023-02-26T09:43:13;97591.72;;;4.59
17716;BMP280;50159;49.426;11.182;2023-02-26T09:45:47;97594.91;;;4.64
17716;BMP280;50159;49.426;11.182;2023-02-26T09:48:18;97604.63;;;4.44
17716;BMP280;50159;49.426;11.182;2023-02-26T09:50:52;97618.19;;;4.32
17716;BMP280;50159;49.426;11.182;2023-02-26T09:53:35;97615.69;;;4.30
17716;BMP280;50159;49.426;11.182;2023-02-26T09:56:12;97627.22;;;4.23
17716;BMP280;50159;49.426;11.182;2023-02-26T09:58:40;97620.31;;;4.09
17716;BMP280;50159;49.426;11.182;2023-02-26T10:01:46;97624.06;;;3.88
17716;BMP280;50159;49.426;11.182;2023-02-26T10:04:40;97631.06;;;3.70
17716;BMP280;50159;49.426;11.182;2023-02-26T10:10:37;97644.84;;;3.69
17716;BMP280;50159;49.426;11.182;2023-02-26T10:13:41;97643.38;;;3.80
17716;BMP280;50159;49.426;11.182;2023-02-26T10:16:36;97643.84;;;3.71
17716;BMP280;50159;49.426;11.182;2023-02-26T10:19:17;97655.56;;;3.77
17716;BMP280;50159;49.426;11.182;2023-02-26T10:22:01;97659.19;;;3.73
17716;BMP280;50159;49.426;11.182;2023-02-26T10:24:46;97653.34;;;3.37
17716;BMP280;50159;49.426;11.182;2023-02-26T10:27:20;97657.38;;;3.26
17716;BMP280;50159;49.426;11.182;2023-02-26T10:30:07;97661.16;;;3.19
17716;BMP280;50159;49.426;11.182;2023-02-26T10:33:06;97658.59;;;3.19
17716;BMP280;50159;49.426;11.182;2023-02-26T10:35:44;97654.03;;;3.24
17716;BMP280;50159;49.426;11.182;2023-02-26T10:38:17;97653.13;;;3.42
17716;BMP280;50159;49.426;11.182;2023-02-26T10:41:04;97652.47;;;3.70
17716;BMP280;50159;49.426;11.182;2023-02-26T10:43:41;97654.69;;;3.93
17716;BMP280;50159;49.426;11.182;2023-02-26T10:46:36;97649.94;;;4.01
17716;BMP280;50159;49.426;11.182;2023-02-26T10:49:39;97657.81;;;3.98
17716;BMP280;50159;49.426;11.182;2023-02-26T10:52:31;97672.94;;;3.88
17716;BMP280;50159;49.426;11.182;2023-02-26T10:55:07;97662.47;;;3.91
17716;BMP280;50159;49.426;11.182;2023-02-26T10:57:50;97654.84;;;3.90
17716;BMP280;50159;49.426;11.182;2023-02-26T11:00:19;97662.88;;;3.99
17716;BMP280;50159;49.426;11.182;2023-02-26T11:02:50;97664.00;;;4.25
17716;BMP280;50159;49.426;11.182;2023-02-26T11:05:23;97650.41;;;4.54
17716;BMP280;50159;49.426;11.182;2023-02-26T11:08:00;97654.19;;;4.77
17716;BMP280;50159;49.426;11.182;2023-02-26T11:10:52;97658.56;;;4.75
17716;BMP280;50159;49.426;11.182;2023-02-26T11:13:25;97660.94;;;4.65
17716;BMP280;50159;49.426;11.182;2023-02-26T11:15:56;97655.28;;;4.43
17716;BMP280;50159;49.426;11.182;2023-02-26T11:18:29;97662.84;;;4.31
17716;BMP280;50159;49.426;11.182;2023-02-26T11:20:59;97666.66;;;4.09
17716;BMP280;50159;49.426;11.182;2023-02-26T11:23:30;97662.06;;;3.99
17716;BMP280;50159;49.426;11.182;2023-02-26T11:26:16;97656.97;;;4.14
17716;BMP280;50159;49.426;11.182;2023-02-26T11:28:49;97646.25;;;4.95
17716;BMP280;50159;49.426;11.182;2023-02-26T11:31:23;97640.88;;;5.56
17716;BMP280;50159;49.426;11.182;2023-02-26T11:34:03;97642.91;;;6.33
17716;BMP280;50159;49.426;11.182;2023-02-26T11:36:32;97632.78;;;6.82
17716;BMP280;50159;49.426;11.182;2023-02-26T11:39:20;97637.41;;;7.41
17716;BMP280;50159;49.426;11.182;2023-02-26T11:41:51;97653.97;;;7.39
17716;BMP280;50159;49.426;11.182;2023-02-26T11:47:21;97667.63;;;6.10
17716;BMP280;50159;49.426;11.182;2023-02-26T11:50:00;97658.38;;;5.51
17716;BMP280;50159;49.426;11.182;2023-02-26T11:52:41;97651.97;;;5.85
17716;BMP280;50159;49.426;11.182;2023-02-26T11:55:36;97644.78;;;6.18
17716;BMP280;50159;49.426;11.182;2023-02-26T11:58:18;97652.34;;;6.60
17716;BMP280;50159;49.426;11.182;2023-02-26T12:00:45;97636.81;;;6.86
17716;BMP280;50159;49.426;11.182;2023-02-26T12:03:24;97646.28;;;6.99
17716;BMP280;50159;49.426;11.182;2023-02-26T12:05:52;97634.41;;;7.09
17716;BMP280;50159;49.426;11.182;2023-02-26T12:08:26;97647.50;;;7.20
17716;BMP280;50159;49.426;11.182;2023-02-26T12:11:39;97643.09;;;7.08
17716;BMP280;50159;49.426;11.182;2023-02-26T12:20:21;97620.06;;;6.79
17716;BMP280;50159;49.426;11.182;2023-02-26T12:26:09;97622.97;;;7.37
17716;BMP280;50159;49.426;11.182;2023-02-26T12:32:06;97636.75;;;6.08
17716;BMP280;50159;49.426;11.182;2023-02-26T12:35:05;97649.72;;;5.52
17716;BMP280;50159;49.426;11.182;2023-02-26T12:38:25;97646.63;;;5.32
17716;BMP280;50159;49.426;11.182;2023-02-26T12:41:29;97634.59;;;5.46
17716;BMP280;50159;49.426;11.182;2023-02-26T12:44:26;97635.38;;;5.76
17716;BMP280;50159;49.426;11.182;2023-02-26T12:47:36;97636.63;;;6.63
17716;BMP280;50159;49.426;11.182;2023-02-26T13:06:01;97651.25;;;5.12
17716;BMP280;50159;49.426;11.182;2023-02-26T13:08:55;97654.50;;;5.15
17716;BMP280;50159;49.426;11.182;2023-02-26T13:11:55;97641.31;;;5.06
17716;BMP280;50159;49.426;11.182;2023-02-26T13:14:52;97651.41;;;4.95
17716;BMP280;50159;49.426;11.182;2023-02-26T13:21:00;97659.66;;;4.71
17716;BMP280;50159;49.426;11.182;2023-02-26T13:26:19;97655.53;;;6.24
17716;BMP280;50159;49.426;11.182;2023-02-26T13:29:09;97654.66;;;6.91
17716;BMP280;50159;49.426;11.182;2023-02-26T13:31:59;97645.53;;;7.36
17716;BMP280;50159;49.426;11.182;2023-02-26T13:37:23;97650.53;;;7.26
17716;BMP280;50159;49.426;11.182;2023-02-26T13:43:36;97667.81;;;6.07
17716;BMP280;50159;49.426;11.182;2023-02-26T13:52:02;97672.25;;;5.49
17716;BMP280;50159;49.426;11.182;2023-02-26T13:54:43;97682.28;;;6.09
17716;BMP280;50159;49.426;11.182;2023-02-26T14:00:44;97672.13;;;5.65
17716;BMP280;50159;49.426;11.182;2023-02-26T14:02:57;97666.06;;;5.37
17716;BMP280;50159;49.426;11.182;2023-02-26T14:05:54;97671.16;;;5.39
17716;BMP280;50159;49.426;11.182;2023-02-26T14:08:45;97675.88;;;5.60
17716;BMP280;50159;49.426;11.182;2023-02-26T14:19:32;97684.16;;;5.22
17716;BMP280;50159;49.426;11.182;2023-02-26T14:22:22;97686.56;;;4.96
17716;BMP280;50159;49.426;11.182;2023-02-26T14:24:58;97693.72;;;4.91
17716;BMP280;50159;49.426;11.182;2023-02-26T14:27:41;97690.25;;;4.77
17716;BMP280;50159;49.426;11.182;2023-02-26T14:35:21;97688.91;;;9.02
17716;BMP280;50159;49.426;11.182;2023-02-26T14:38:01;95588.75;;;-1.96
17716;BMP280;50159;49.426;11.182;2023-02-26T14:40:38;97702.41;;;9.74
17716;BMP280;50159;49.426;11.182;2023-02-26T14:43:15;97710.06;;;8.73
17716;BMP280;50159;49.426;11.182;2023-02-26T14:45:44;97717.72;;;7.52
17716;BMP280;50159;49.426;11.182;2023-02-26T14:48:18;97721.06;;;6.63
17716;BMP280;50159;49.426;11.182;2023-02-26T14:56:26;97732.50;;;5.48
17716;BMP280;50159;49.426;11.182;2023-02-26T14:59:17;97736.72;;;5.20
17716;BMP280;50159;49.426;11.182;2023-02-26T15:08:33;97746.00;;;4.63
17716;BMP280;50159;49.426;11.182;2023-02-26T15:14:24;97761.66;;;4.28
17716;BMP280;50159;49.426;11.182;2023-02-26T15:17:41;97757.91;;;4.81
17716;BMP280;50159;49.426;11.182;2023-02-26T15:25:51;97767.28;;;4.67
17716;BMP280;50159;49.426;11.182;2023-02-26T15:28:27;97770.88;;;4.32
17716;BMP280;50159;49.426;11.182;2023-02-26T15:30:56;97772.31;;;4.06
17716;BMP280;50159;49.426;11.182;2023-02-26T15:33:24;97783.69;;;3.85
17716;BMP280;50159;49.426;11.182;2023-02-26T15:35:53;97793.31;;;3.65
17716;BMP280;50159;49.426;11.182;2023-02-26T15:38:21;97785.75;;;3.46
17716;BMP280;50159;49.426;11.182;2023-02-26T15:40:52;97797.91;;;3.42
17716;BMP280;50159;49.426;11.182;2023-02-26T15:43:27;97797.38;;;3.36
17716;BMP280;50159;49.426;11.182;2023-02-26T15:45:57;97802.75;;;3.32
17716;BMP280;50159;49.426;11.182;2023-02-26T15:48:30;97807.97;;;3.30
17716;BMP280;50159;49.426;11.182;2023-02-26T15:51:01;97805.16;;;3.34
17716;BMP280;50159;49.426;11.182;2023-02-26T15:53:40;97810.81;;;3.76
17716;BMP280;50159;49.426;11.182;2023-02-26T15:56:13;97815.91;;;4.09
17716;BMP280;50159;49.426;11.182;2023-02-26T15:58:53;97821.97;;;4.08
17716;BMP280;50159;49.426;11.182;2023-02-26T16:01:23;97832.56;;;3.85
17716;BMP280;50159;49.426;11.182;2023-02-26T16:03:55;97830.16;;;3.66
17716;BMP280;50159;49.426;11.182;2023-02-26T16:06:35;97833.00;;;3.43
17716;BMP280;50159;49.426;11.182;2023-02-26T16:09:05;97822.25;;;3.35
17716;BMP280;50159;49.426;11.182;2023-02-26T16:11:38;97824.69;;;3.38
17716;BMP280;50159;49.426;11.182;2023-02-26T16:14:17;97832.75;;;3.31
17716;BMP280;50159;49.426;11.182;2023-02-26T16:16:53;97829.16;;;3.17
17716;BMP280;50159;49.426;11.182;2023-02-26T16:19:46;97842.25;;;2.94
17716;BMP280;50159;49.426;11.182;2023-02-26T16:22:31;97841.44;;;2.76
17716;BMP280;50159;49.426;11.182;2023-02-26T16:25:13;97852.44;;;2.60
17716;BMP280;50159;49.426;11.182;2023-02-26T16:27:42;97846.63;;;2.37
17716;BMP280;50159;49.426;11.182;2023-02-26T16:30:36;97854.09;;;2.23
17716;BMP280;50159;49.426;11.182;2023-02-26T16:33:09;97863.94;;;2.14
17716;BMP280;50159;49.426;11.182;2023-02-26T16:35:44;97864.56;;;1.99
17716;BMP280;50159;49.426;11.182;2023-02-26T16:40:59;97878.22;;;1.80
17716;BMP280;50159;49.426;11.182;2023-02-26T16:46:42;97876.22;;;1.67
17716;BMP280;50159;49.426;11.182;2023-02-26T16:49:25;97891.06;;;1.59
17716;BMP280;50159;49.426;11.182;2023-02-26T16:51:55;97899.03;;;1.53